sensor_id;sensor_type;location;lat;lon;timestamp;P1;durP1;ratioP1;P2;durP2;ratioP2
4466;SDS011;2246;42.664;23.278;2023-05-27T00:00:34;8.23;;;5.20;;
4466;SDS011;2246;42.664;23.278;2023-05-27T00:03:00;11.40;;;5.47;;
4466;SDS011;2246;42.664;23.278;2023-05-27T00:05:26;16.45;;;9.82;;
4466;SDS011;2246;42.664;23.278;2023-05-27T00:07:52;21.75;;;10.13;;
4466;SDS011;2246;42.664;23.278;2023-05-27T00:10:18;18.40;;;11.35;;
4466;SDS011;2246;42.664;23.278;2023-05-27T00:12:45;22.92;;;11.07;;
4466;SDS011;2246;42.664;23.278;2023-05-27T00:15:11;19.42;;;10.32;;
4466;SDS011;2246;42.664;23.278;2023-05-27T00:17:37;16.45;;;10.40;;
4466;SDS011;2246;42.664;23.278;2023-05-27T00:20:04;27.25;;;11.85;;
4466;SDS011;2246;42.664;23.278;2023-05-27T00:22:32;18.05;;;10.43;;
4466;SDS011;2246;42.664;23.278;2023-05-27T00:24:59;13.27;;;10.07;;
4466;SDS011;2246;42.664;23.278;2023-05-27T00:27:25;16.27;;;9.60;;
4466;SDS011;2246;42.664;23.278;2023-05-27T00:29:51;16.10;;;9.15;;
4466;SDS011;2246;42.664;23.278;2023-05-27T00:32:17;16.38;;;9.80;;
4466;SDS011;2246;42.664;23.278;2023-05-27T00:34:44;14.15;;;9.15;;
4466;SDS011;2246;42.664;23.278;2023-05-27T00:37:10;16.17;;;7.55;;
4466;SDS011;2246;42.664;23.278;2023-05-27T00:39:36;13.98;;;8.38;;
4466;SDS011;2246;42.664;23.278;2023-05-27T00:42:02;9.98;;;6.38;;
4466;SDS011;2246;42.664;23.278;2023-05-27T00:44:28;8.30;;;6.10;;
4466;SDS011;2246;42.664;23.278;2023-05-27T00:46:54;9.50;;;6.28;;
4466;SDS011;2246;42.664;23.278;2023-05-27T00:49:20;9.45;;;6.60;;
4466;SDS011;2246;42.664;23.278;2023-05-27T00:51:46;9.50;;;5.95;;
4466;SDS011;2246;42.664;23.278;2023-05-27T00:54:12;9.32;;;5.30;;
4466;SDS011;2246;42.664;23.278;2023-05-27T00:56:38;6.13;;;4.60;;
4466;SDS011;2246;42.664;23.278;2023-05-27T00:59:05;5.07;;;3.05;;
4466;SDS011;2246;42.664;23.278;2023-05-27T01:01:31;6.18;;;3.30;;
4466;SDS011;2246;42.664;23.278;2023-05-27T01:03:58;6.90;;;3.17;;
4466;SDS011;2246;42.664;23.278;2023-05-27T01:06:28;4.57;;;3.00;;
4466;SDS011;2246;42.664;23.278;2023-05-27T01:11:48;4.22;;;2.88;;
4466;SDS011;2246;42.664;23.278;2023-05-27T01:14:16;5.03;;;2.50;;
4466;SDS011;2246;42.664;23.278;2023-05-27T01:16:44;5.25;;;3.33;;
4466;SDS011;2246;42.664;23.278;2023-05-27T01:19:52;4.20;;;3.25;;
4466;SDS011;2246;42.664;23.278;2023-05-27T01:22:00;3.72;;;3.10;;
4466;SDS011;2246;42.664;23.278;2023-05-27T01:24:26;7.32;;;3.83;;
4466;SDS011;2246;42.664;23.278;2023-05-27T01:26:53;3.72;;;2.88;;
4466;SDS011;2246;42.664;23.278;2023-05-27T01:29:20;4.60;;;3.00;;
4466;SDS011;2246;42.664;23.278;2023-05-27T01:34:36;4.45;;;3.38;;
4466;SDS011;2246;42.664;23.278;2023-05-27T01:37:05;4.88;;;3.03;;
4466;SDS011;2246;42.664;23.278;2023-05-27T01:41:59;9.50;;;6.10;;
4466;SDS011;2246;42.664;23.278;2023-05-27T01:44:27;16.23;;;8.82;;
4466;SDS011;2246;42.664;23.278;2023-05-27T01:46:57;12.18;;;5.30;;
4466;SDS011;2246;42.664;23.278;2023-05-27T01:49:24;5.22;;;2.97;;
4466;SDS011;2246;42.664;23.278;2023-05-27T01:51:50;8.13;;;4.78;;
4466;SDS011;2246;42.664;23.278;2023-05-27T01:54:16;4.07;;;2.95;;
4466;SDS011;2246;42.664;23.278;2023-05-27T01:56:42;7.22;;;3.97;;
4466;SDS011;2246;42.664;23.278;2023-05-27T01:59:08;4.90;;;3.47;;
4466;SDS011;2246;42.664;23.278;2023-05-27T02:01:34;3.13;;;2.63;;
4466;SDS011;2246;42.664;23.278;2023-05-27T02:04:01;5.72;;;3.03;;
4466;SDS011;2246;42.664;23.278;2023-05-27T02:06:28;6.68;;;4.13;;
4466;SDS011;2246;42.664;23.278;2023-05-27T02:08:54;5.07;;;3.60;;
4466;SDS011;2246;42.664;23.278;2023-05-27T02:11:21;9.73;;;4.47;;
4466;SDS011;2246;42.664;23.278;2023-05-27T02:13:47;5.00;;;3.30;;
4466;SDS011;2246;42.664;23.278;2023-05-27T02:16:13;5.10;;;3.72;;
4466;SDS011;2246;42.664;23.278;2023-05-27T02:18:39;4.22;;;3.17;;
4466;SDS011;2246;42.664;23.278;2023-05-27T02:21:06;7.60;;;3.72;;
4466;SDS011;2246;42.664;23.278;2023-05-27T02:23:35;7.32;;;5.15;;
4466;SDS011;2246;42.664;23.278;2023-05-27T02:26:01;6.68;;;4.22;;
4466;SDS011;2246;42.664;23.278;2023-05-27T02:28:27;7.78;;;5.00;;
4466;SDS011;2246;42.664;23.278;2023-05-27T02:30:53;4.93;;;3.78;;
4466;SDS011;2246;42.664;23.278;2023-05-27T02:33:20;6.00;;;3.70;;
4466;SDS011;2246;42.664;23.278;2023-05-27T02:35:46;6.05;;;4.32;;
4466;SDS011;2246;42.664;23.278;2023-05-27T02:38:12;8.73;;;4.38;;
4466;SDS011;2246;42.664;23.278;2023-05-27T02:40:38;5.75;;;3.60;;
4466;SDS011;2246;42.664;23.278;2023-05-27T02:43:04;4.30;;;3.45;;
4466;SDS011;2246;42.664;23.278;2023-05-27T02:45:30;4.95;;;3.70;;
4466;SDS011;2246;42.664;23.278;2023-05-27T02:47:57;5.40;;;3.70;;
4466;SDS011;2246;42.664;23.278;2023-05-27T02:50:26;8.20;;;3.63;;
4466;SDS011;2246;42.664;23.278;2023-05-27T02:52:52;6.13;;;3.70;;
4466;SDS011;2246;42.664;23.278;2023-05-27T02:55:18;4.93;;;3.78;;
4466;SDS011;2246;42.664;23.278;2023-05-27T02:57:44;8.88;;;3.97;;
4466;SDS011;2246;42.664;23.278;2023-05-27T03:00:11;4.95;;;3.85;;
4466;SDS011;2246;42.664;23.278;2023-05-27T03:05:04;6.45;;;4.38;;
4466;SDS011;2246;42.664;23.278;2023-05-27T03:07:30;5.13;;;3.72;;
4466;SDS011;2246;42.664;23.278;2023-05-27T03:09:57;4.95;;;3.88;;
4466;SDS011;2246;42.664;23.278;2023-05-27T03:12:23;5.18;;;4.18;;
4466;SDS011;2246;42.664;23.278;2023-05-27T03:14:50;8.55;;;5.03;;
4466;SDS011;2246;42.664;23.278;2023-05-27T03:17:16;5.45;;;4.60;;
4466;SDS011;2246;42.664;23.278;2023-05-27T03:19:42;7.25;;;4.32;;
4466;SDS011;2246;42.664;23.278;2023-05-27T03:22:08;5.45;;;4.13;;
4466;SDS011;2246;42.664;23.278;2023-05-27T03:24:35;4.97;;;3.88;;
4466;SDS011;2246;42.664;23.278;2023-05-27T03:27:01;7.90;;;4.45;;
4466;SDS011;2246;42.664;23.278;2023-05-27T03:29:28;5.50;;;3.37;;
4466;SDS011;2246;42.664;23.278;2023-05-27T03:31:54;4.80;;;3.72;;
4466;SDS011;2246;42.664;23.278;2023-05-27T03:34:20;11.45;;;4.18;;
4466;SDS011;2246;42.664;23.278;2023-05-27T03:36:46;4.35;;;3.40;;
4466;SDS011;2246;42.664;23.278;2023-05-27T03:39:14;9.77;;;3.88;;
4466;SDS011;2246;42.664;23.278;2023-05-27T03:41:41;8.30;;;3.88;;
4466;SDS011;2246;42.664;23.278;2023-05-27T03:44:07;6.25;;;3.72;;
4466;SDS011;2246;42.664;23.278;2023-05-27T03:46:34;4.30;;;3.17;;
4466;SDS011;2246;42.664;23.278;2023-05-27T03:49:00;5.82;;;3.63;;
4466;SDS011;2246;42.664;23.278;2023-05-27T03:51:26;8.02;;;3.40;;
4466;SDS011;2246;42.664;23.278;2023-05-27T03:53:52;8.32;;;4.00;;
4466;SDS011;2246;42.664;23.278;2023-05-27T03:56:18;5.25;;;3.70;;
4466;SDS011;2246;42.664;23.278;2023-05-27T03:58:44;5.15;;;3.80;;
4466;SDS011;2246;42.664;23.278;2023-05-27T04:01:10;5.43;;;3.80;;
4466;SDS011;2246;42.664;23.278;2023-05-27T04:03:36;5.15;;;3.58;;
4466;SDS011;2246;42.664;23.278;2023-05-27T04:06:04;7.65;;;3.67;;
4466;SDS011;2246;42.664;23.278;2023-05-27T04:08:30;4.95;;;3.92;;
4466;SDS011;2246;42.664;23.278;2023-05-27T04:10:56;4.60;;;3.80;;
4466;SDS011;2246;42.664;23.278;2023-05-27T04:13:22;5.10;;;4.03;;
4466;SDS011;2246;42.664;23.278;2023-05-27T04:15:48;5.85;;;3.83;;
4466;SDS011;2246;42.664;23.278;2023-05-27T04:18:15;4.70;;;3.50;;
4466;SDS011;2246;42.664;23.278;2023-05-27T04:20:41;5.80;;;4.00;;
4466;SDS011;2246;42.664;23.278;2023-05-27T04:25:35;5.97;;;3.67;;
4466;SDS011;2246;42.664;23.278;2023-05-27T04:28:02;7.45;;;4.25;;
4466;SDS011;2246;42.664;23.278;2023-05-27T04:30:31;8.13;;;4.85;;
4466;SDS011;2246;42.664;23.278;2023-05-27T04:32:58;8.85;;;4.97;;
4466;SDS011;2246;42.664;23.278;2023-05-27T04:35:24;6.85;;;4.00;;
4466;SDS011;2246;42.664;23.278;2023-05-27T04:37:50;5.90;;;4.05;;
4466;SDS011;2246;42.664;23.278;2023-05-27T04:40:16;5.70;;;3.92;;
4466;SDS011;2246;42.664;23.278;2023-05-27T04:42:42;9.70;;;5.25;;
4466;SDS011;2246;42.664;23.278;2023-05-27T04:45:09;9.65;;;4.35;;
4466;SDS011;2246;42.664;23.278;2023-05-27T04:47:38;7.47;;;4.38;;
4466;SDS011;2246;42.664;23.278;2023-05-27T04:52:32;9.43;;;3.92;;
4466;SDS011;2246;42.664;23.278;2023-05-27T04:55:04;14.65;;;4.50;;
4466;SDS011;2246;42.664;23.278;2023-05-27T04:57:31;4.55;;;3.35;;
4466;SDS011;2246;42.664;23.278;2023-05-27T04:59:57;5.53;;;3.75;;
4466;SDS011;2246;42.664;23.278;2023-05-27T05:02:43;5.57;;;3.15;;
4466;SDS011;2246;42.664;23.278;2023-05-27T05:05:12;5.18;;;3.30;;
4466;SDS011;2246;42.664;23.278;2023-05-27T05:07:39;9.05;;;3.10;;
4466;SDS011;2246;42.664;23.278;2023-05-27T05:10:12;9.57;;;3.42;;
4466;SDS011;2246;42.664;23.278;2023-05-27T05:12:38;4.28;;;3.22;;
4466;SDS011;2246;42.664;23.278;2023-05-27T05:15:06;5.97;;;3.40;;
4466;SDS011;2246;42.664;23.278;2023-05-27T05:17:33;6.65;;;3.17;;
4466;SDS011;2246;42.664;23.278;2023-05-27T05:19:59;5.47;;;2.90;;
4466;SDS011;2246;42.664;23.278;2023-05-27T05:22:25;4.97;;;3.58;;
4466;SDS011;2246;42.664;23.278;2023-05-27T05:24:53;8.10;;;3.33;;
4466;SDS011;2246;42.664;23.278;2023-05-27T05:27:19;2.72;;;2.28;;
4466;SDS011;2246;42.664;23.278;2023-05-27T05:29:45;7.05;;;2.75;;
4466;SDS011;2246;42.664;23.278;2023-05-27T05:32:11;4.50;;;3.13;;
4466;SDS011;2246;42.664;23.278;2023-05-27T05:34:38;7.72;;;3.40;;
4466;SDS011;2246;42.664;23.278;2023-05-27T05:37:04;8.95;;;5.43;;
4466;SDS011;2246;42.664;23.278;2023-05-27T05:39:31;5.45;;;3.60;;
4466;SDS011;2246;42.664;23.278;2023-05-27T05:41:57;6.22;;;2.72;;
4466;SDS011;2246;42.664;23.278;2023-05-27T05:44:24;4.55;;;3.15;;
4466;SDS011;2246;42.664;23.278;2023-05-27T05:46:51;6.00;;;3.20;;
4466;SDS011;2246;42.664;23.278;2023-05-27T05:49:17;7.82;;;3.42;;
4466;SDS011;2246;42.664;23.278;2023-05-27T05:51:44;8.10;;;3.78;;
4466;SDS011;2246;42.664;23.278;2023-05-27T05:54:10;8.43;;;3.97;;
4466;SDS011;2246;42.664;23.278;2023-05-27T05:56:36;15.60;;;4.18;;
4466;SDS011;2246;42.664;23.278;2023-05-27T05:59:02;13.52;;;4.15;;
4466;SDS011;2246;42.664;23.278;2023-05-27T06:01:28;8.23;;;4.22;;
4466;SDS011;2246;42.664;23.278;2023-05-27T06:03:54;9.95;;;3.72;;
4466;SDS011;2246;42.664;23.278;2023-05-27T06:06:21;9.63;;;3.95;;
4466;SDS011;2246;42.664;23.278;2023-05-27T06:08:47;7.97;;;5.00;;
4466;SDS011;2246;42.664;23.278;2023-05-27T06:11:13;9.70;;;4.35;;
4466;SDS011;2246;42.664;23.278;2023-05-27T06:13:39;8.77;;;4.22;;
4466;SDS011;2246;42.664;23.278;2023-05-27T06:16:05;10.73;;;5.25;;
4466;SDS011;2246;42.664;23.278;2023-05-27T06:18:31;12.10;;;6.18;;
4466;SDS011;2246;42.664;23.278;2023-05-27T06:20:57;8.32;;;4.47;;
4466;SDS011;2246;42.664;23.278;2023-05-27T06:23:23;8.68;;;4.80;;
4466;SDS011;2246;42.664;23.278;2023-05-27T06:25:49;8.48;;;5.55;;
4466;SDS011;2246;42.664;23.278;2023-05-27T06:28:16;6.13;;;4.95;;
4466;SDS011;2246;42.664;23.278;2023-05-27T06:30:41;9.75;;;5.38;;
4466;SDS011;2246;42.664;23.278;2023-05-27T06:33:08;9.82;;;6.32;;
4466;SDS011;2246;42.664;23.278;2023-05-27T06:35:34;10.07;;;5.20;;
4466;SDS011;2246;42.664;23.278;2023-05-27T06:38:00;7.77;;;5.50;;
4466;SDS011;2246;42.664;23.278;2023-05-27T06:40:27;10.60;;;5.82;;
4466;SDS011;2246;42.664;23.278;2023-05-27T06:42:53;8.27;;;5.60;;
4466;SDS011;2246;42.664;23.278;2023-05-27T06:45:19;11.52;;;6.78;;
4466;SDS011;2246;42.664;23.278;2023-05-27T06:47:45;9.15;;;5.65;;
4466;SDS011;2246;42.664;23.278;2023-05-27T06:50:11;11.88;;;5.65;;
4466;SDS011;2246;42.664;23.278;2023-05-27T06:52:37;9.98;;;6.22;;
4466;SDS011;2246;42.664;23.278;2023-05-27T06:55:04;7.95;;;5.80;;
4466;SDS011;2246;42.664;23.278;2023-05-27T06:57:30;8.52;;;5.50;;
4466;SDS011;2246;42.664;23.278;2023-05-27T06:59:56;6.75;;;4.47;;
4466;SDS011;2246;42.664;23.278;2023-05-27T07:02:22;8.48;;;5.28;;
4466;SDS011;2246;42.664;23.278;2023-05-27T07:04:48;6.72;;;4.78;;
4466;SDS011;2246;42.664;23.278;2023-05-27T07:07:14;9.35;;;4.97;;
4466;SDS011;2246;42.664;23.278;2023-05-27T07:09:40;7.70;;;5.50;;
4466;SDS011;2246;42.664;23.278;2023-05-27T07:12:06;13.13;;;6.40;;
4466;SDS011;2246;42.664;23.278;2023-05-27T07:14:32;14.57;;;6.05;;
4466;SDS011;2246;42.664;23.278;2023-05-27T07:16:58;10.32;;;5.30;;
4466;SDS011;2246;42.664;23.278;2023-05-27T07:19:24;11.32;;;5.68;;
4466;SDS011;2246;42.664;23.278;2023-05-27T07:21:50;11.27;;;5.50;;
4466;SDS011;2246;42.664;23.278;2023-05-27T07:24:16;9.05;;;5.55;;
4466;SDS011;2246;42.664;23.278;2023-05-27T07:26:43;10.70;;;6.05;;
4466;SDS011;2246;42.664;23.278;2023-05-27T07:29:09;8.05;;;5.10;;
4466;SDS011;2246;42.664;23.278;2023-05-27T07:31:35;16.13;;;10.75;;
4466;SDS011;2246;42.664;23.278;2023-05-27T07:34:01;12.98;;;7.50;;
4466;SDS011;2246;42.664;23.278;2023-05-27T07:36:28;12.02;;;6.20;;
4466;SDS011;2246;42.664;23.278;2023-05-27T07:38:54;9.00;;;5.95;;
4466;SDS011;2246;42.664;23.278;2023-05-27T07:41:21;9.00;;;5.28;;
4466;SDS011;2246;42.664;23.278;2023-05-27T07:43:47;7.85;;;5.30;;
4466;SDS011;2246;42.664;23.278;2023-05-27T07:46:13;10.00;;;5.53;;
4466;SDS011;2246;42.664;23.278;2023-05-27T07:48:39;8.15;;;5.32;;
4466;SDS011;2246;42.664;23.278;2023-05-27T07:51:05;8.73;;;5.85;;
4466;SDS011;2246;42.664;23.278;2023-05-27T07:53:31;9.15;;;4.90;;
4466;SDS011;2246;42.664;23.278;2023-05-27T07:55:57;15.10;;;5.57;;
4466;SDS011;2246;42.664;23.278;2023-05-27T07:58:23;9.15;;;4.50;;
4466;SDS011;2246;42.664;23.278;2023-05-27T08:00:49;7.22;;;4.70;;
4466;SDS011;2246;42.664;23.278;2023-05-27T08:03:15;9.70;;;4.93;;
4466;SDS011;2246;42.664;23.278;2023-05-27T08:05:41;11.18;;;4.78;;
4466;SDS011;2246;42.664;23.278;2023-05-27T08:08:07;9.65;;;4.05;;
4466;SDS011;2246;42.664;23.278;2023-05-27T08:10:33;9.50;;;4.05;;
4466;SDS011;2246;42.664;23.278;2023-05-27T08:12:59;7.93;;;3.40;;
4466;SDS011;2246;42.664;23.278;2023-05-27T08:15:25;8.02;;;3.40;;
4466;SDS011;2246;42.664;23.278;2023-05-27T08:17:52;5.97;;;3.00;;
4466;SDS011;2246;42.664;23.278;2023-05-27T08:20:18;5.93;;;3.15;;
4466;SDS011;2246;42.664;23.278;2023-05-27T08:22:44;9.52;;;3.08;;
4466;SDS011;2246;42.664;23.278;2023-05-27T08:25:11;4.73;;;2.87;;
4466;SDS011;2246;42.664;23.278;2023-05-27T08:30:12;5.90;;;2.97;;
4466;SDS011;2246;42.664;23.278;2023-05-27T08:32:40;5.40;;;3.50;;
4466;SDS011;2246;42.664;23.278;2023-05-27T08:35:06;7.40;;;2.88;;
4466;SDS011;2246;42.664;23.278;2023-05-27T08:37:32;4.50;;;3.38;;
4466;SDS011;2246;42.664;23.278;2023-05-27T08:39:59;5.45;;;2.92;;
4466;SDS011;2246;42.664;23.278;2023-05-27T08:42:25;5.90;;;3.10;;
4466;SDS011;2246;42.664;23.278;2023-05-27T08:44:52;7.60;;;3.25;;
4466;SDS011;2246;42.664;23.278;2023-05-27T08:47:18;6.80;;;3.35;;
4466;SDS011;2246;42.664;23.278;2023-05-27T08:49:44;5.25;;;3.13;;
4466;SDS011;2246;42.664;23.278;2023-05-27T08:52:10;7.85;;;3.55;;
4466;SDS011;2246;42.664;23.278;2023-05-27T08:54:38;7.80;;;4.85;;
4466;SDS011;2246;42.664;23.278;2023-05-27T08:57:06;5.25;;;3.47;;
4466;SDS011;2246;42.664;23.278;2023-05-27T08:59:33;5.95;;;3.75;;
4466;SDS011;2246;42.664;23.278;2023-05-27T09:01:59;6.80;;;4.25;;
4466;SDS011;2246;42.664;23.278;2023-05-27T09:04:27;9.25;;;4.00;;
4466;SDS011;2246;42.664;23.278;2023-05-27T09:06:53;10.32;;;4.72;;
4466;SDS011;2246;42.664;23.278;2023-05-27T09:09:19;7.03;;;3.60;;
4466;SDS011;2246;42.664;23.278;2023-05-27T09:11:46;9.57;;;4.07;;
4466;SDS011;2246;42.664;23.278;2023-05-27T09:14:21;7.53;;;3.25;;
4466;SDS011;2246;42.664;23.278;2023-05-27T09:16:47;6.55;;;4.10;;
4466;SDS011;2246;42.664;23.278;2023-05-27T09:19:16;9.60;;;4.00;;
4466;SDS011;2246;42.664;23.278;2023-05-27T09:21:42;6.15;;;3.95;;
4466;SDS011;2246;42.664;23.278;2023-05-27T09:24:09;4.97;;;3.20;;
4466;SDS011;2246;42.664;23.278;2023-05-27T09:26:35;5.03;;;3.60;;
4466;SDS011;2246;42.664;23.278;2023-05-27T09:29:05;6.22;;;3.78;;
4466;SDS011;2246;42.664;23.278;2023-05-27T09:31:31;8.63;;;4.15;;
4466;SDS011;2246;42.664;23.278;2023-05-27T09:33:58;9.40;;;4.95;;
4466;SDS011;2246;42.664;23.278;2023-05-27T09:36:41;7.28;;;4.47;;
4466;SDS011;2246;42.664;23.278;2023-05-27T09:39:07;8.27;;;4.93;;
4466;SDS011;2246;42.664;23.278;2023-05-27T09:41:33;6.30;;;4.75;;
4466;SDS011;2246;42.664;23.278;2023-05-27T09:44:01;7.75;;;4.50;;
4466;SDS011;2246;42.664;23.278;2023-05-27T09:46:31;6.85;;;4.25;;
4466;SDS011;2246;42.664;23.278;2023-05-27T09:48:58;9.02;;;4.55;;
4466;SDS011;2246;42.664;23.278;2023-05-27T09:51:27;8.85;;;3.95;;
4466;SDS011;2246;42.664;23.278;2023-05-27T09:53:54;9.82;;;4.05;;
4466;SDS011;2246;42.664;23.278;2023-05-27T09:56:23;10.00;;;4.72;;
4466;SDS011;2246;42.664;23.278;2023-05-27T09:58:49;6.32;;;4.88;;
4466;SDS011;2246;42.664;23.278;2023-05-27T10:01:16;7.25;;;4.85;;
4466;SDS011;2246;42.664;23.278;2023-05-27T10:03:42;6.72;;;4.43;;
4466;SDS011;2246;42.664;23.278;2023-05-27T10:06:10;7.47;;;4.43;;
4466;SDS011;2246;42.664;23.278;2023-05-27T10:08:38;7.47;;;4.18;;
4466;SDS011;2246;42.664;23.278;2023-05-27T10:11:04;6.88;;;3.90;;
4466;SDS011;2246;42.664;23.278;2023-05-27T10:13:30;8.15;;;4.32;;
4466;SDS011;2246;42.664;23.278;2023-05-27T10:15:56;6.22;;;4.32;;
4466;SDS011;2246;42.664;23.278;2023-05-27T10:18:23;6.65;;;4.18;;
4466;SDS011;2246;42.664;23.278;2023-05-27T10:20:49;5.38;;;4.13;;
4466;SDS011;2246;42.664;23.278;2023-05-27T10:23:23;8.98;;;4.38;;
4466;SDS011;2246;42.664;23.278;2023-05-27T10:25:55;6.43;;;4.20;;
4466;SDS011;2246;42.664;23.278;2023-05-27T10:28:24;9.40;;;3.83;;
4466;SDS011;2246;42.664;23.278;2023-05-27T10:30:51;12.32;;;7.18;;
4466;SDS011;2246;42.664;23.278;2023-05-27T10:33:25;7.85;;;4.00;;
4466;SDS011;2246;42.664;23.278;2023-05-27T10:35:51;5.90;;;3.80;;
4466;SDS011;2246;42.664;23.278;2023-05-27T10:38:18;6.15;;;4.10;;
4466;SDS011;2246;42.664;23.278;2023-05-27T10:40:45;6.75;;;4.38;;
4466;SDS011;2246;42.664;23.278;2023-05-27T10:43:17;5.13;;;3.80;;
4466;SDS011;2246;42.664;23.278;2023-05-27T10:45:44;11.20;;;5.05;;
4466;SDS011;2246;42.664;23.278;2023-05-27T10:48:14;5.18;;;4.20;;
4466;SDS011;2246;42.664;23.278;2023-05-27T10:50:41;6.20;;;4.00;;
4466;SDS011;2246;42.664;23.278;2023-05-27T10:53:16;10.65;;;5.03;;
4466;SDS011;2246;42.664;23.278;2023-05-27T10:55:42;7.72;;;4.38;;
4466;SDS011;2246;42.664;23.278;2023-05-27T10:58:08;7.60;;;3.88;;
4466;SDS011;2246;42.664;23.278;2023-05-27T11:00:34;6.57;;;4.15;;
4466;SDS011;2246;42.664;23.278;2023-05-27T11:03:01;7.57;;;4.20;;
4466;SDS011;2246;42.664;23.278;2023-05-27T11:05:28;9.82;;;4.15;;
4466;SDS011;2246;42.664;23.278;2023-05-27T11:07:58;8.40;;;4.05;;
4466;SDS011;2246;42.664;23.278;2023-05-27T11:10:25;8.25;;;4.80;;
4466;SDS011;2246;42.664;23.278;2023-05-27T11:12:51;7.28;;;4.20;;
4466;SDS011;2246;42.664;23.278;2023-05-27T11:15:18;8.60;;;4.03;;
4466;SDS011;2246;42.664;23.278;2023-05-27T11:17:44;6.53;;;3.97;;
4466;SDS011;2246;42.664;23.278;2023-05-27T11:20:10;6.57;;;3.97;;
4466;SDS011;2246;42.664;23.278;2023-05-27T11:22:37;8.50;;;4.60;;
4466;SDS011;2246;42.664;23.278;2023-05-27T11:25:03;6.85;;;4.28;;
4466;SDS011;2246;42.664;23.278;2023-05-27T11:29:56;7.03;;;3.72;;
4466;SDS011;2246;42.664;23.278;2023-05-27T11:32:23;8.05;;;3.97;;
4466;SDS011;2246;42.664;23.278;2023-05-27T11:34:49;5.43;;;4.13;;
4466;SDS011;2246;42.664;23.278;2023-05-27T11:37:15;6.78;;;3.95;;
4466;SDS011;2246;42.664;23.278;2023-05-27T11:39:51;6.70;;;3.90;;
4466;SDS011;2246;42.664;23.278;2023-05-27T11:42:23;6.35;;;3.55;;
4466;SDS011;2246;42.664;23.278;2023-05-27T11:44:50;6.60;;;3.78;;
4466;SDS011;2246;42.664;23.278;2023-05-27T11:47:17;6.18;;;4.25;;
4466;SDS011;2246;42.664;23.278;2023-05-27T11:49:43;6.25;;;3.83;;
4466;SDS011;2246;42.664;23.278;2023-05-27T11:52:10;6.15;;;4.30;;
4466;SDS011;2246;42.664;23.278;2023-05-27T11:54:37;6.18;;;4.35;;
4466;SDS011;2246;42.664;23.278;2023-05-27T11:57:03;6.43;;;4.20;;
4466;SDS011;2246;42.664;23.278;2023-05-27T11:59:35;7.18;;;4.28;;
4466;SDS011;2246;42.664;23.278;2023-05-27T12:02:01;10.35;;;4.85;;
4466;SDS011;2246;42.664;23.278;2023-05-27T12:06:55;13.07;;;6.97;;
4466;SDS011;2246;42.664;23.278;2023-05-27T12:09:23;7.88;;;4.85;;
4466;SDS011;2246;42.664;23.278;2023-05-27T12:11:49;50.72;;;20.17;;
4466;SDS011;2246;42.664;23.278;2023-05-27T12:14:16;33.97;;;13.00;;
4466;SDS011;2246;42.664;23.278;2023-05-27T12:16:42;17.75;;;8.30;;
4466;SDS011;2246;42.664;23.278;2023-05-27T12:19:08;15.73;;;7.20;;
4466;SDS011;2246;42.664;23.278;2023-05-27T12:21:36;19.83;;;9.05;;
4466;SDS011;2246;42.664;23.278;2023-05-27T12:24:02;22.58;;;9.05;;
4466;SDS011;2246;42.664;23.278;2023-05-27T12:26:29;18.95;;;7.75;;
4466;SDS011;2246;42.664;23.278;2023-05-27T12:28:55;26.88;;;10.40;;
4466;SDS011;2246;42.664;23.278;2023-05-27T12:31:21;24.08;;;12.15;;
4466;SDS011;2246;42.664;23.278;2023-05-27T12:33:48;16.58;;;7.15;;
4466;SDS011;2246;42.664;23.278;2023-05-27T12:36:14;29.30;;;12.77;;
4466;SDS011;2246;42.664;23.278;2023-05-27T12:38:40;15.50;;;7.35;;
4466;SDS011;2246;42.664;23.278;2023-05-27T12:41:06;10.63;;;5.28;;
4466;SDS011;2246;42.664;23.278;2023-05-27T12:43:32;24.63;;;9.98;;
4466;SDS011;2246;42.664;23.278;2023-05-27T12:45:59;24.38;;;9.18;;
4466;SDS011;2246;42.664;23.278;2023-05-27T12:48:25;12.73;;;6.05;;
4466;SDS011;2246;42.664;23.278;2023-05-27T12:50:51;6.03;;;4.60;;
4466;SDS011;2246;42.664;23.278;2023-05-27T12:53:20;8.05;;;4.47;;
4466;SDS011;2246;42.664;23.278;2023-05-27T12:55:46;17.77;;;7.63;;
4466;SDS011;2246;42.664;23.278;2023-05-27T12:58:12;15.07;;;7.40;;
4466;SDS011;2246;42.664;23.278;2023-05-27T13:00:38;12.82;;;5.93;;
4466;SDS011;2246;42.664;23.278;2023-05-27T13:03:05;7.47;;;4.93;;
4466;SDS011;2246;42.664;23.278;2023-05-27T13:05:31;13.32;;;6.63;;
4466;SDS011;2246;42.664;23.278;2023-05-27T13:10:23;17.30;;;8.45;;
4466;SDS011;2246;42.664;23.278;2023-05-27T13:12:49;21.17;;;11.40;;
4466;SDS011;2246;42.664;23.278;2023-05-27T13:15:15;29.27;;;11.90;;
4466;SDS011;2246;42.664;23.278;2023-05-27T13:17:42;18.90;;;10.10;;
4466;SDS011;2246;42.664;23.278;2023-05-27T13:20:08;18.15;;;7.53;;
4466;SDS011;2246;42.664;23.278;2023-05-27T13:22:34;48.10;;;26.13;;
4466;SDS011;2246;42.664;23.278;2023-05-27T13:25:01;22.92;;;11.45;;
4466;SDS011;2246;42.664;23.278;2023-05-27T13:27:28;21.97;;;10.07;;
4466;SDS011;2246;42.664;23.278;2023-05-27T13:29:54;21.40;;;9.82;;
4466;SDS011;2246;42.664;23.278;2023-05-27T13:32:20;17.45;;;8.73;;
4466;SDS011;2246;42.664;23.278;2023-05-27T13:34:46;23.45;;;9.63;;
4466;SDS011;2246;42.664;23.278;2023-05-27T13:37:12;14.88;;;7.18;;
4466;SDS011;2246;42.664;23.278;2023-05-27T13:39:38;12.30;;;6.95;;
4466;SDS011;2246;42.664;23.278;2023-05-27T13:42:08;12.80;;;5.10;;
4466;SDS011;2246;42.664;23.278;2023-05-27T13:44:35;22.02;;;10.88;;
4466;SDS011;2246;42.664;23.278;2023-05-27T13:47:01;10.25;;;5.43;;
4466;SDS011;2246;42.664;23.278;2023-05-27T13:49:27;22.70;;;9.43;;
4466;SDS011;2246;42.664;23.278;2023-05-27T13:51:53;12.90;;;5.80;;
4466;SDS011;2246;42.664;23.278;2023-05-27T13:54:19;14.57;;;6.45;;
4466;SDS011;2246;42.664;23.278;2023-05-27T13:56:45;38.50;;;17.20;;
4466;SDS011;2246;42.664;23.278;2023-05-27T13:59:11;12.48;;;6.03;;
4466;SDS011;2246;42.664;23.278;2023-05-27T14:01:37;14.02;;;7.00;;
4466;SDS011;2246;42.664;23.278;2023-05-27T14:04:03;41.45;;;17.77;;
4466;SDS011;2246;42.664;23.278;2023-05-27T14:06:29;13.50;;;6.38;;
4466;SDS011;2246;42.664;23.278;2023-05-27T14:08:56;22.23;;;8.48;;
4466;SDS011;2246;42.664;23.278;2023-05-27T14:11:22;19.73;;;8.52;;
4466;SDS011;2246;42.664;23.278;2023-05-27T14:13:49;12.35;;;6.05;;
4466;SDS011;2246;42.664;23.278;2023-05-27T14:16:15;17.17;;;7.68;;
4466;SDS011;2246;42.664;23.278;2023-05-27T14:18:42;18.00;;;7.65;;
4466;SDS011;2246;42.664;23.278;2023-05-27T14:21:08;42.47;;;17.10;;
4466;SDS011;2246;42.664;23.278;2023-05-27T14:23:34;59.03;;;24.33;;
4466;SDS011;2246;42.664;23.278;2023-05-27T14:26:01;36.83;;;14.82;;
4466;SDS011;2246;42.664;23.278;2023-05-27T14:28:27;14.63;;;6.10;;
4466;SDS011;2246;42.664;23.278;2023-05-27T14:30:53;19.55;;;7.97;;
4466;SDS011;2246;42.664;23.278;2023-05-27T14:33:19;19.83;;;8.30;;
4466;SDS011;2246;42.664;23.278;2023-05-27T14:35:45;18.83;;;6.80;;
4466;SDS011;2246;42.664;23.278;2023-05-27T14:38:11;15.15;;;7.28;;
4466;SDS011;2246;42.664;23.278;2023-05-27T14:40:38;11.52;;;4.55;;
4466;SDS011;2246;42.664;23.278;2023-05-27T14:43:04;6.72;;;4.13;;
4466;SDS011;2246;42.664;23.278;2023-05-27T14:45:31;7.20;;;4.85;;
4466;SDS011;2246;42.664;23.278;2023-05-27T14:47:57;5.97;;;3.67;;
4466;SDS011;2246;42.664;23.278;2023-05-27T14:50:23;10.35;;;4.70;;
4466;SDS011;2246;42.664;23.278;2023-05-27T14:52:50;8.00;;;4.18;;
4466;SDS011;2246;42.664;23.278;2023-05-27T14:55:16;5.72;;;3.47;;
4466;SDS011;2246;42.664;23.278;2023-05-27T14:57:42;5.28;;;3.83;;
4466;SDS011;2246;42.664;23.278;2023-05-27T15:00:08;9.75;;;3.95;;
4466;SDS011;2246;42.664;23.278;2023-05-27T15:02:35;6.90;;;3.50;;
4466;SDS011;2246;42.664;23.278;2023-05-27T15:05:02;7.70;;;3.92;;
4466;SDS011;2246;42.664;23.278;2023-05-27T15:09:55;5.22;;;3.20;;
4466;SDS011;2246;42.664;23.278;2023-05-27T15:12:21;4.97;;;3.70;;
4466;SDS011;2246;42.664;23.278;2023-05-27T15:14:47;8.38;;;3.80;;
4466;SDS011;2246;42.664;23.278;2023-05-27T15:17:13;5.55;;;3.58;;
4466;SDS011;2246;42.664;23.278;2023-05-27T15:19:39;6.20;;;3.80;;